Dripping Springs, TX (78620)

10:12 AM CDT on September 05, 2015 (GMT -0500)
APRSWXNET | | Change Station
CLOSE
Current Station
Personal Weather Station
Location: Dripping Springs, TX
Elevation: 1282 ft
Nearby Weather Stations

Elev 1282 ft 30.23 °N, 98.17 °W | Updated 28 minutes ago

Overcast
Overcast
81 °F
Feels Like 87 °F
N
0
Wind Variable Wind from SW
Gusts 3.0 mph

Today
High -- | Low -- °F
--% Chance of Precip.
Yesterday
High -- | Low -- °F
Precip. -- in
7:11 AM 7:50 PM
Waning Gibbous, 48% visible
Pressure 30.06 in
Visibility 10.0 miles
Clouds Mostly Cloudy 1500 ft
Mostly Cloudy 2000 ft
Mostly Cloudy 2500 ft
Heat Index 87 °F
Dew Point 75 °F
Humidity 81%
Rainfall in
Snow Depth Not available.
UV 2 out of 12
Pollen 8.10 out of 12
Air Quality Not available.
Flu Activity Not available.
METAR KRYW 051455Z AUTO 22006KT 10SM BKN015 BKN020 BKN025 28/22 A3006 RMK AO2 T02760224
Pressure 30.06 in
Visibility 10.0 miles
Clouds Mostly Cloudy 1500 ft
Mostly Cloudy 2000 ft
Mostly Cloudy 2500 ft
Heat Index 87 °F
Dew Point 75 °F
Humidity 81%
Rainfall in
Snow Depth Not available.
UV 2 out of 12
Pollen 8.10 out of 12
Air Quality Not available.
Flu Activity Not available.
METAR KRYW 051455Z AUTO 22006KT 10SM BKN015 BKN020 BKN025 28/22 A3006 RMK AO2 T02760224
Nowcast | as of 9:09 am CDT on September 5, 2015

Through 10 am...isolated showers and patchy sprinkles east of I-35 will move to the north at 10 to 15 mph. Spotty rainfall amounts up to 1/4 inch are possible.

×

10-Day Weather Forecast

×

Almanac

Astronomy

Sep. 05, 2015 Rise Set
Actual Time
Civil Twilight
Nautical Twilight
Astronomical Twilight
Moon
Length of Visible Light
Length of Day
Tomorrow will be .
, % of the Moon is Illuminated

Today's Extremes

State Highs State Lows

Community

WunderPhotos

Upload Photos

1,852,480 photos uploaded!

WunderBlogs® & News

Nearby

Air Quality

  Air Quality AQ Index Pollutant
Not available.

Snow Depth

Station Depth Elevation

Earthquake Activity

City Distance Mag. Time & Date
Minimum magnitude displayed is 2.5.

Coastal Water Temperatures

Place Temperature

Stations

Nearby Weather Stations

Station Location Temp. Windchill Dew Point Humidity Wind Precip. Elev Updated Type